Government Camp, Oregon
Current Conditions -  °F | °C
As of 3:59 AM on Wednesday 28 Jan 2015 (Local Time) from K4S2 Reporting Station
Overcast Overcast  
Wind Chill: 42°   Ceiling: 4100
Heat Index: 45°   Visibility: 10mi
Dew Point: 43°   Wind: 5mph
Humidity: 93%   Direction: 190°S
Pressure: 30.3"   Gusts: NA
Location:  45.3°N, 121.75°W
Report Text: K4S2 281159Z AUTO 19004KT 10SM SCT023 BKN041 OVC047 07/06 A3030 RMK AO2 SLP279 T00700060
Loading
Personal Weather Stations






























Interactive Weather Map New forecast layout! Learn more

10-Day Weather Forecast

Advertisements
Track Severe Weather on mobile